Terminal Aerodrome Forecast
Issued by NWS Sterling, VA

Home | Current Version | Previous Version | Text Only | Print | Product List | Glossary On
Versions: 1 2 3 4 5 6 7 8 9 10 11 12 13 14 15 16 17 18 19 20 21 22 23 24
000
FTUS41 KLWX 051502 AAA
TAFBWI
TAF AMD
KBWI 051502Z 0515/0618 VRB04KT P6SM SCT020 BKN100
     FM052000 13005KT P6SM SCT050
     FM061000 00000KT 5SM -SHRA BKN050=

USA.gov is the U.S. government's official web portal to all federal, state and local government web resources and services.